createdAt,value
2023-05-19T00:05:10.054Z,85.4
2023-05-19T00:25:10.030Z,86.5
2023-05-19T00:45:10.034Z,87.0
2023-05-19T01:05:09.989Z,86.8
2023-05-19T01:25:09.992Z,88.2
2023-05-19T01:45:09.961Z,88.1
2023-05-19T02:05:09.935Z,87.7
2023-05-19T02:25:09.914Z,88.1
2023-05-19T02:45:09.907Z,87.6
2023-05-19T03:05:09.889Z,87.7
2023-05-19T03:25:09.861Z,89.0
2023-05-19T03:45:09.858Z,89.8
2023-05-19T04:05:09.820Z,88.5
2023-05-19T04:25:09.814Z,88.9
2023-05-19T04:45:09.788Z,88.5
2023-05-19T05:05:09.773Z,88.6
2023-05-19T05:25:09.739Z,88.9
2023-05-19T05:45:09.715Z,88.8
2023-05-19T06:05:09.683Z,88.1
2023-05-19T06:25:09.676Z,86.7
2023-05-19T06:45:09.648Z,85.4
2023-05-19T07:05:09.631Z,85.8
2023-05-19T07:25:09.657Z,82.5
2023-05-19T07:45:09.727Z,81.7
2023-05-19T08:05:09.641Z,82.2
2023-05-19T08:25:09.576Z,80.8
2023-05-19T08:45:09.613Z,81.1
2023-05-19T09:05:09.595Z,81.2
2023-05-19T09:25:09.673Z,80.7
2023-05-19T09:45:09.698Z,81.7
2023-05-19T10:05:09.639Z,80.7
2023-05-19T10:25:09.597Z,81.9
2023-05-19T10:45:09.689Z,81.3
2023-05-19T11:05:09.570Z,80.7
2023-05-19T11:25:09.584Z,81.4
2023-05-19T11:45:09.368Z,81.6
2023-05-19T12:05:09.508Z,80.6
2023-05-19T12:25:09.357Z,79.7
2023-05-19T12:45:09.436Z,81.0
2023-05-19T13:05:09.268Z,78.8
2023-05-19T13:25:09.443Z,80.8
2023-05-19T13:45:09.169Z,78.8
2023-05-19T14:05:09.192Z,77.6
2023-05-19T14:25:09.139Z,75.9
2023-05-19T14:45:09.307Z,77.2
2023-05-19T15:05:09.224Z,77.7
2023-05-19T15:25:09.075Z,79.2
2023-05-19T15:45:09.172Z,78.7
2023-05-19T16:05:08.972Z,78.4
2023-05-19T16:25:09.108Z,77.6
2023-05-19T16:45:08.912Z,77.2
2023-05-19T17:05:08.904Z,79.9
2023-05-19T17:25:09.003Z,80.7
2023-05-19T17:45:08.830Z,82.0
2023-05-19T18:05:08.826Z,82.4
2023-05-19T18:25:08.920Z,82.5
2023-05-19T18:45:08.875Z,82.4
2023-05-19T19:05:08.889Z,83.9
2023-05-19T19:25:08.717Z,85.0
2023-05-19T19:45:08.888Z,84.8
2023-05-19T20:05:08.838Z,82.5
2023-05-19T20:25:08.617Z,82.5
2023-05-19T20:45:08.657Z,83.0
2023-05-19T21:05:08.590Z,83.5
2023-05-19T21:25:08.759Z,83.1
2023-05-19T21:45:08.646Z,83.1
2023-05-19T22:05:08.662Z,82.9
2023-05-19T22:25:08.617Z,83.2
2023-05-19T22:45:08.597Z,83.8
2023-05-19T23:05:08.619Z,83.8
2023-05-19T23:25:08.519Z,84.8
2023-05-19T23:45:08.591Z,86.0
